createdAt,value
2023-04-09T00:01:35.626Z,1.30
2023-04-09T00:04:04.181Z,1.17
2023-04-09T00:06:31.740Z,1.60
2023-04-09T00:09:01.175Z,1.60
2023-04-09T00:11:29.665Z,1.70
2023-04-09T00:14:03.988Z,1.60
2023-04-09T00:16:32.550Z,1.77
2023-04-09T00:18:59.802Z,1.97
2023-04-09T00:21:27.976Z,1.17
2023-04-09T00:23:55.317Z,1.17
2023-04-09T00:26:22.765Z,1.20
2023-04-09T00:28:51.343Z,1.60
2023-04-09T00:31:20.889Z,1.80
2023-04-09T00:33:48.881Z,1.80
2023-04-09T00:36:18.197Z,1.60
2023-04-09T00:38:48.772Z,1.80
2023-04-09T00:41:18.726Z,1.73
2023-04-09T00:43:48.647Z,1.70
2023-04-09T00:46:16.926Z,2.03
2023-04-09T00:48:45.165Z,1.80
2023-04-09T00:51:12.494Z,1.80
2023-04-09T00:53:39.780Z,1.50
2023-04-09T00:56:09.015Z,2.07
2023-04-09T00:58:37.676Z,2.10
2023-04-09T01:01:07.573Z,2.57
2023-04-09T01:03:36.092Z,1.57
2023-04-09T01:06:22.559Z,1.50
2023-04-09T01:09:08.412Z,1.40
2023-04-09T01:11:59.438Z,1.57
2023-04-09T01:14:49.265Z,1.70
2023-04-09T01:17:33.012Z,1.70
2023-04-09T01:20:04.676Z,1.40
2023-04-09T01:22:47.092Z,2.10
2023-04-09T01:25:20.220Z,1.33
2023-04-09T01:27:55.901Z,1.90
2023-04-09T01:30:23.683Z,1.60
2023-04-09T01:32:51.864Z,3.30
2023-04-09T01:35:21.356Z,2.00
2023-04-09T01:37:55.009Z,1.77
2023-04-09T01:40:34.427Z,2.10
2023-04-09T01:43:11.756Z,1.73
2023-04-09T01:45:38.918Z,1.60
2023-04-09T01:48:05.973Z,1.30
2023-04-09T01:50:35.158Z,2.13
2023-04-09T01:53:07.508Z,1.63
2023-04-09T01:55:34.642Z,1.20
2023-04-09T01:58:03.961Z,1.80
2023-04-09T02:00:34.195Z,1.40
2023-04-09T02:03:09.284Z,1.63
2023-04-09T02:05:47.585Z,3.13
2023-04-09T02:08:21.956Z,1.57
2023-04-09T02:10:54.073Z,1.70
2023-04-09T02:13:27.593Z,1.80
2023-04-09T02:15:56.162Z,1.53
2023-04-09T02:18:27.823Z,1.80
2023-04-09T02:21:00.404Z,1.50
2023-04-09T02:23:29.542Z,1.53
2023-04-09T02:25:57.732Z,1.37
2023-04-09T02:28:24.936Z,1.67
2023-04-09T02:31:00.247Z,1.33
2023-04-09T02:33:29.463Z,1.60
2023-04-09T02:35:56.628Z,1.53
2023-04-09T02:38:25.425Z,1.70
2023-04-09T02:40:59.743Z,1.50
2023-04-09T02:43:27.890Z,1.37
2023-04-09T02:45:55.167Z,1.53
2023-04-09T02:48:27.349Z,1.50
2023-04-09T02:50:56.377Z,1.70
2023-04-09T02:53:24.527Z,1.40
2023-04-09T02:55:57.674Z,1.80
2023-04-09T02:58:25.880Z,1.50
2023-04-09T03:01:02.475Z,2.00
2023-04-09T03:03:42.748Z,2.13
2023-04-09T03:06:12.939Z,1.93
2023-04-09T03:08:39.965Z,2.57
2023-04-09T03:11:11.120Z,2.00
2023-04-09T03:13:53.635Z,1.63
2023-04-09T03:16:22.336Z,1.70
2023-04-09T03:18:50.759Z,2.03
2023-04-09T03:21:24.507Z,1.47
2023-04-09T03:23:53.986Z,1.57
2023-04-09T03:26:21.164Z,2.30
2023-04-09T03:28:55.544Z,1.53
2023-04-09T03:31:32.255Z,1.60
2023-04-09T03:33:59.495Z,1.60
2023-04-09T03:36:28.573Z,1.97
2023-04-09T03:38:55.687Z,1.70
2023-04-09T03:41:22.972Z,1.73
2023-04-09T03:43:58.262Z,1.67
2023-04-09T03:46:25.912Z,1.43
2023-04-09T03:48:53.314Z,2.17
2023-04-09T03:51:20.695Z,1.97
2023-04-09T03:53:47.974Z,1.90
2023-04-09T03:56:15.170Z,2.03
2023-04-09T03:58:42.384Z,1.40
2023-04-09T04:01:16.153Z,1.97
2023-04-09T04:03:45.525Z,1.87
2023-04-09T04:06:14.928Z,2.27
2023-04-09T04:08:53.328Z,1.73
2023-04-09T04:11:35.822Z,2.10
2023-04-09T04:14:05.334Z,2.23
2023-04-09T04:16:33.624Z,2.07
2023-04-09T04:19:00.847Z,2.10
2023-04-09T04:21:29.302Z,1.67
2023-04-09T04:24:02.529Z,1.53
2023-04-09T04:26:29.778Z,2.40
2023-04-09T04:28:57.141Z,1.90
2023-04-09T04:31:32.570Z,1.90
2023-04-09T04:34:00.785Z,3.27
2023-04-09T04:36:27.989Z,1.90
2023-04-09T04:39:01.291Z,1.30
2023-04-09T04:41:28.580Z,1.80
2023-04-09T04:43:58.364Z,1.37
2023-04-09T04:46:26.700Z,1.73
2023-04-09T04:48:56.055Z,2.00
2023-04-09T04:51:31.884Z,1.63
2023-04-09T04:54:01.547Z,2.43
2023-04-09T04:56:30.837Z,1.80
2023-04-09T04:59:06.347Z,1.60
2023-04-09T05:01:44.867Z,2.30
2023-04-09T05:04:12.089Z,1.80
2023-04-09T05:06:48.620Z,2.00
2023-04-09T05:09:16.517Z,1.83
2023-04-09T05:11:43.683Z,1.80
2023-04-09T05:14:11.242Z,2.00
2023-04-09T05:16:49.621Z,1.97
2023-04-09T05:19:16.780Z,1.90
2023-04-09T05:21:47.148Z,1.43
2023-04-09T05:24:15.959Z,1.90
2023-04-09T05:26:46.370Z,1.77
2023-04-09T05:29:24.512Z,2.50
2023-04-09T05:31:53.170Z,1.90
2023-04-09T05:34:24.622Z,2.13
2023-04-09T05:36:53.586Z,2.10
2023-04-09T05:39:22.649Z,2.17
2023-04-09T05:41:58.457Z,1.70
2023-04-09T05:44:25.807Z,2.30
2023-04-09T05:46:52.903Z,2.73
2023-04-09T05:49:20.211Z,2.80
2023-04-09T05:51:48.488Z,2.60
2023-04-09T05:54:26.585Z,2.60
2023-04-09T05:56:53.711Z,2.20
2023-04-09T05:59:21.851Z,2.27
2023-04-09T06:01:51.511Z,2.80
2023-04-09T06:04:18.955Z,2.43
2023-04-09T06:06:47.779Z,1.93
2023-04-09T06:09:15.029Z,2.23
2023-04-09T06:11:42.252Z,1.70
2023-04-09T06:14:18.713Z,1.60
2023-04-09T06:16:45.986Z,2.10
2023-04-09T06:19:17.018Z,1.97
2023-04-09T06:21:46.589Z,2.50
2023-04-09T06:24:13.733Z,1.97
2023-04-09T06:26:50.409Z,1.93
2023-04-09T06:29:17.748Z,2.00
2023-04-09T06:31:44.900Z,2.40
2023-04-09T06:34:12.419Z,2.83
2023-04-09T06:36:46.120Z,2.30
2023-04-09T06:39:17.569Z,2.37
2023-04-09T06:41:47.169Z,2.23
2023-04-09T06:44:20.534Z,2.00
2023-04-09T06:46:49.695Z,2.40
2023-04-09T06:49:17.928Z,2.00
2023-04-09T06:51:49.031Z,2.00
2023-04-09T06:54:20.290Z,2.30
2023-04-09T06:56:48.403Z,2.20
2023-04-09T06:59:16.960Z,2.03
2023-04-09T07:01:44.484Z,2.23
2023-04-09T07:04:19.983Z,1.70
2023-04-09T07:07:00.555Z,1.80
2023-04-09T07:09:27.694Z,2.30
2023-04-09T07:11:58.816Z,1.90
2023-04-09T07:14:29.054Z,2.73
2023-04-09T07:17:05.479Z,2.43
2023-04-09T07:19:34.716Z,2.83
2023-04-09T07:22:06.017Z,3.50
2023-04-09T07:24:35.538Z,2.90
2023-04-09T07:27:06.822Z,3.07
2023-04-09T07:29:34.037Z,3.73
2023-04-09T07:32:03.384Z,3.03
2023-04-09T07:34:32.418Z,3.47
2023-04-09T07:36:59.576Z,2.73
2023-04-09T07:39:27.934Z,3.30
2023-04-09T07:42:00.618Z,2.90
2023-04-09T07:44:28.774Z,2.77
2023-04-09T07:46:56.915Z,2.60
2023-04-09T07:49:43.077Z,3.10
2023-04-09T07:52:10.775Z,2.33
2023-04-09T07:54:45.307Z,2.67
2023-04-09T07:57:12.396Z,3.00
2023-04-09T07:59:39.616Z,2.77
2023-04-09T08:02:07.110Z,2.80
2023-04-09T08:04:34.447Z,2.60
2023-04-09T08:07:01.875Z,2.77
2023-04-09T08:09:31.299Z,2.63
2023-04-09T08:11:58.484Z,2.90
2023-04-09T08:14:27.700Z,3.93
2023-04-09T08:16:59.034Z,2.30
2023-04-09T08:19:26.360Z,2.83
2023-04-09T08:21:53.502Z,2.67
2023-04-09T08:24:22.983Z,3.60
2023-04-09T08:26:50.221Z,3.57
2023-04-09T08:29:18.987Z,2.63
2023-04-09T08:31:49.976Z,2.77
